X  Zatvori METAR podaci zračne luke     EDDC Dresden Airport
Temperatura
3°C Temperatura
2°C Točka rosišta
93% Vlaga



Vjetar
11 KM/S
7 MPS
3 M/S
6 Čvorovi



150°
JJI
Trenutna situacija

Vedro Vedro
Tlak zraka 1017.95 (hPa) - 30.06 (inHg)
Vidljivost 6 (milje) - 9.7 (km)
Zračna luka
Kôd zračne luke EDDC

Lokacija: Dresden Airport
Udaljenost: 122 (km)

Metar:
EDDC 290850Z AUTO 15006KT CAVOK 03/02 Q1018 NOSIG

Vrijeme: 29-02-2024 09:50 CET